Latest Weather Observations for Hartz Mountains

IDT60801

Issued at 9:41 pm EDT Saturday 23 February 2019 (issued every 10 minutes, with the page automatically refreshed every 10 minutes)

About weather observations | Map of weather stations | Latest weather observations for TAS | Other Formats
Station Details ID: 094191 Name: HARTZ MOUNTAIN (KEOGHS PIMPLE) Lat: -43.20 Lon: 146.77 Height: 831.0 m
Data from the previous 72 hours. | See also: Recent months at Hartz Mountains
Date/Time
EDT
Temp
°C
App
Temp
°C
Dew
Point
°C
Rel
Hum
%
Delta-T
°C
Wind Press
QNH
hPa
Press
MSL
hPa
Rain since
9am
mm
Dir  Spd
km/h
Gust
km/h
Spd
kts
Gust
kts
23/09:30pm 7.1 5.9 4.8 85 1.1 CALM 0 6 0 3 - - 0.2
23/09:00pm 6.8 4.4 5.3 90 0.7 SSE 7 9 4 5 - - 0.2
23/08:30pm 6.0 2.7 4.3 89 0.8 SE 11 15 6 8 - - 0.2
23/08:00pm 6.9 3.2 4.7 86 1.0 SE 13 17 7 9 - - 0.2
23/07:30pm 8.7 5.9 5.3 79 1.6 SE 9 13 5 7 - - 0.2
23/07:00pm 9.2 6.0 5.0 75 2.0 ESE 11 15 6 8 - - 0.2
23/06:30pm 10.2 6.8 5.8 74 2.1 SE 13 17 7 9 - - 0.2
23/06:00pm 10.9 7.1 5.7 70 2.5 ESE 15 19 8 10 - - 0.2
23/05:30pm 11.1 6.5 5.8 70 2.6 ESE 19 26 10 14 - - 0.2
23/05:00pm 12.5 8.0 6.1 65 3.2 ESE 19 24 10 13 - - 0.2
23/04:30pm 13.7 10.4 6.3 61 3.7 ESE 13 24 7 13 - - 0.2
23/04:00pm 14.2 10.7 7.3 63 3.5 E 15 20 8 11 - - 0.2
23/03:30pm 14.2 11.5 7.3 63 3.5 ESE 11 20 6 11 - - 0.2
23/03:00pm 15.1 12.7 7.2 59 4.1 E 9 15 5 8 - - 0.2
23/02:30pm 14.6 11.1 7.4 62 3.7 NE 15 20 8 11 - - 0.2
23/02:00pm 14.7 12.0 8.9 68 3.1 NNE 13 20 7 11 - - 0.2
23/01:30pm 15.1 12.6 8.1 63 3.7 NE 11 17 6 9 - - 0.2
23/01:00pm 15.3 12.6 9.0 66 3.4 NE 13 20 7 11 - - 0.2
23/12:30pm 14.7 12.5 7.7 63 3.6 NE 9 19 5 10 - - 0.2
23/12:00pm 13.9 11.2 7.2 64 3.4 NE 11 17 6 9 - - 0.2
23/11:30am 13.4 11.2 7.8 69 2.9 ENE 9 13 5 7 - - 0.2
23/11:00am 11.9 9.5 6.8 71 2.6 ENE 9 15 5 8 - - 0.2
23/10:30am 11.4 9.0 5.3 66 2.9 NE 7 13 4 7 - - 0.0
23/10:00am 10.2 7.3 4.6 68 2.6 NE 9 15 5 8 - - 0.0
23/09:30am 8.5 6.0 4.5 76 1.9 SSE 7 15 4 8 - - 0.0
23/09:00am 6.3 2.2 2.4 76 1.7 SSW 13 20 7 11 - - 0.0
23/08:30am 5.2 0.0 2.2 81 1.3 SSW 19 28 10 15 - - 0.0
23/08:00am 4.9 -0.3 2.6 85 1.0 SSW 19 30 10 16 - - 0.0
23/07:30am 4.7 -0.5 2.4 85 1.0 SSW 19 32 10 17 - - 0.0
23/07:00am 4.8 -1.2 3.1 89 0.7 SW 24 32 13 17 - - 0.0
23/06:30am 5.3 0.1 3.6 89 0.7 SW 20 30 11 16 - - 0.0
23/06:06am 5.7 -0.9 4.3 91 0.6 SW 28 46 15 25 - - 0.0
23/06:00am 5.8 -1.5 4.4 91 0.6 SW 32 46 17 25 - - 0.0
23/05:30am 6.5 -0.7 5.0 90 0.7 SW 32 56 17 30 - - 0.0
23/05:21am 6.8 0.5 5.6 92 0.6 SW 28 50 15 27 - - 0.0
23/05:00am 7.2 0.3 6.6 96 0.3 SW 32 43 17 23 - - 0.0
23/04:30am 7.6 0.7 7.2 97 0.2 SW 33 48 18 26 - - 0.0
23/04:00am 7.6 1.3 7.2 97 0.2 SW 30 41 16 22 - - 0.0
23/03:30am 7.8 1.1 7.4 97 0.2 WSW 32 44 17 24 - - 0.0
23/03:00am 7.9 0.7 7.5 97 0.2 WSW 35 46 19 25 - - 0.0
23/02:30am 8.0 0.8 7.6 97 0.2 WSW 35 44 19 24 - - 0.0
23/02:00am 7.9 0.3 7.5 97 0.2 WSW 37 48 20 26 - - 0.0
23/01:30am 7.8 -0.6 7.4 97 0.2 WSW 41 52 22 28 - - 0.0
23/01:00am 7.9 0.3 7.5 97 0.2 WSW 37 46 20 25 - - 0.0
23/12:30am 7.9 0.3 7.5 97 0.2 WSW 37 46 20 25 - - 0.0
23/12:00am 7.9 1.1 7.5 97 0.2 WSW 33 48 18 26 - - 0.0
 
Date/Time
EDT
Temp
°C
App
Temp
°C
Dew
Point
°C
Rel
Hum
%
Delta-T
°C
Wind Press
QNH
hPa
Press
MSL
hPa
Rain since
9am
mm
Dir  Spd
km/h
Gust
km/h
Spd
kts
Gust
kts
22/11:30pm 7.9 0.7 7.5 97 0.2 WSW 35 46 19 25 - - 0.0
22/11:00pm 7.9 1.0 7.3 96 0.3 W 33 44 18 24 - - 0.0
22/10:30pm 7.9 0.6 7.3 96 0.3 W 35 44 19 24 - - 0.0
22/10:00pm 7.9 2.3 7.1 95 0.4 W 26 33 14 18 - - 0.0
22/09:30pm 8.0 1.2 7.1 94 0.4 WSW 32 43 17 23 - - 0.0
22/09:10pm 8.0 1.2 6.9 93 0.5 W 32 50 17 27 - - 0.0
22/09:00pm 8.1 0.0 7.0 93 0.5 WSW 39 50 21 27 - - 0.0
22/08:30pm 8.2 1.4 7.0 92 0.6 W 32 43 17 23 - - 0.0
22/08:00pm 8.4 2.9 7.5 94 0.4 WSW 26 39 14 21 - - 0.0
22/07:30pm 8.6 2.3 7.5 93 0.5 W 30 48 16 26 - - 0.0
22/07:26pm 8.6 2.7 7.5 93 0.5 W 28 48 15 26 - - 0.0
22/07:00pm 8.9 2.6 7.4 90 0.7 W 30 44 16 24 - - 0.0
22/06:36pm 8.9 2.2 7.4 90 0.7 WSW 32 50 17 27 - - 0.0
22/06:30pm 9.0 1.8 7.5 90 0.7 WSW 35 50 19 27 - - 0.0
22/06:00pm 9.1 3.2 7.7 91 0.7 WSW 28 46 15 25 - - 0.0
22/05:37pm 9.4 3.5 7.7 89 0.9 WSW 28 46 15 25 - - 0.0
22/05:30pm 9.5 4.1 8.1 91 0.7 WSW 26 37 14 20 - - 0.0
22/05:00pm 10.2 5.3 8.3 88 1.0 W 24 39 13 21 - - 0.0
22/04:34pm 10.2 4.0 7.8 85 1.2 W 30 48 16 26 - - 0.0
22/04:30pm 10.3 4.4 7.7 84 1.3 W 28 41 15 22 - - 0.0
22/04:00pm 11.4 4.4 8.4 82 1.5 WNW 35 54 19 29 - - 0.0
22/03:30pm 10.7 3.6 8.1 84 1.3 W 35 56 19 30 - - 0.0
22/03:00pm 11.4 4.4 8.3 81 1.6 W 35 56 19 30 - - 0.0
22/02:33pm 11.6 4.4 7.7 77 2.0 W 35 57 19 31 - - 0.0
22/02:30pm 12.2 4.8 8.5 78 1.9 W 37 54 20 29 - - 0.0
22/02:19pm 12.4 4.7 8.7 78 1.9 W 39 57 21 31 - - 0.0
22/02:00pm 10.5 2.2 7.6 82 1.5 W 41 54 22 29 - - 0.0
22/01:30pm 11.6 4.7 8.8 83 1.5 W 35 54 19 29 - - 0.0
22/01:03pm 11.7 4.0 8.7 82 1.6 W 39 57 21 31 - - 0.0
22/01:00pm 11.7 3.6 8.7 82 1.6 W 41 57 22 31 - - 0.0
22/12:37pm 11.5 4.2 8.7 83 1.5 W 37 56 20 30 - - 0.0
22/12:30pm 11.1 2.6 8.7 85 1.2 W 43 57 23 31 - - 0.0
22/12:19pm 10.6 2.1 8.7 88 1.0 W 43 61 23 33 - - 0.0
22/12:00pm 9.1 0.3 8.0 93 0.6 WSW 44 59 24 32 - - 0.0
22/11:30am 8.2 -1.2 7.1 93 0.5 W 46 57 25 31 - - 0.0
22/11:00am 8.1 0.0 7.2 94 0.4 W 39 56 21 30 - - 0.0
22/10:47am 8.5 -0.2 7.7 95 0.4 W 43 61 23 33 - - 0.0
22/10:30am 7.8 -1.0 7.4 97 0.2 W 43 59 23 32 - - 0.0
22/10:15am 7.3 -1.8 6.9 97 0.2 WSW 44 63 24 34 - - 0.0
22/10:00am 7.1 -2.4 6.7 97 0.2 WSW 46 59 25 32 - - 0.0
22/09:33am 6.9 -2.6 6.5 97 0.2 WSW 46 65 25 35 - - 0.0
22/09:30am 6.9 -3.0 6.5 97 0.2 WSW 48 65 26 35 - - 0.0
22/09:12am 6.9 -1.3 6.5 97 0.2 W 39 57 21 31 - - 0.0
22/09:00am 6.9 -0.2 6.5 97 0.2 W 33 46 18 25 - - 6.2
22/08:30am 7.1 1.0 6.7 97 0.2 W 28 39 15 21 - - 6.2
22/08:00am 6.8 2.4 6.4 97 0.2 W 19 41 10 22 - - 6.2
22/07:30am 6.8 1.0 6.4 97 0.2 WSW 26 43 14 23 - - 6.2
22/07:00am 7.0 0.5 6.6 97 0.2 W 30 43 16 23 - - 6.0
22/06:30am 6.9 0.4 6.5 97 0.2 W 30 43 16 23 - - 6.0
22/06:00am 6.9 0.0 6.5 97 0.2 W 32 48 17 26 - - 6.0
22/05:30am 6.9 -0.6 6.5 97 0.2 W 35 54 19 29 - - 6.0
22/05:12am 6.8 -1.1 6.4 97 0.2 W 37 67 20 36 - - 6.0
22/05:00am 6.8 -0.7 6.4 97 0.2 W 35 52 19 28 - - 6.0
22/04:31am 6.7 -1.2 6.3 97 0.2 W 37 56 20 30 - - 6.0
22/04:30am 6.7 -0.8 6.3 97 0.2 W 35 50 19 27 - - 6.0
22/04:05am 6.6 -0.4 6.2 97 0.2 W 32 50 17 27 - - 6.0
22/04:00am 6.6 -0.9 6.2 97 0.2 W 35 50 19 27 - - 6.0
22/03:30am 6.5 -2.2 6.1 97 0.2 W 41 67 22 36 - - 6.0
22/03:06am 6.5 -1.8 6.1 97 0.2 W 39 61 21 33 - - 6.0
22/03:00am 6.5 -1.8 6.1 97 0.2 W 39 54 21 29 - - 6.0
22/02:31am 6.6 -1.7 6.2 97 0.2 WNW 39 57 21 31 - - 6.0
22/02:30am 6.7 -1.9 6.3 97 0.2 W 41 57 22 31 - - 6.0
22/02:00am 6.6 -1.3 6.2 97 0.2 W 37 59 20 32 - - 6.0
22/01:36am 6.5 -1.0 6.1 97 0.2 WNW 35 54 19 29 - - 6.0
22/01:30am 6.4 -1.2 6.0 97 0.2 WNW 35 50 19 27 - - 6.0
22/01:00am 6.4 0.2 6.0 97 0.2 W 28 46 15 25 - - 6.0
22/12:30am 6.5 -0.7 6.1 97 0.2 W 33 59 18 32 - - 6.0
22/12:00am 6.5 -1.0 6.1 97 0.2 W 35 57 19 31 - - 5.8
 
Date/Time
EDT
Temp
°C
App
Temp
°C
Dew
Point
°C
Rel
Hum
%
Delta-T
°C
Wind Press
QNH
hPa
Press
MSL
hPa
Rain since
9am
mm
Dir  Spd
km/h
Gust
km/h
Spd
kts
Gust
kts
21/11:38pm 6.8 -0.1 6.4 97 0.2 WNW 32 50 17 27 - - 5.8
21/11:30pm 6.8 -0.1 6.4 97 0.2 W 32 48 17 26 - - 5.8
21/11:00pm 6.8 1.8 6.4 97 0.2 W 22 37 12 20 - - 5.8
21/10:30pm 6.8 1.4 6.2 96 0.3 W 24 37 13 20 - - 5.4
21/10:00pm 6.8 1.0 6.2 96 0.3 W 26 43 14 23 - - 5.4
21/09:30pm 6.9 1.9 6.3 96 0.3 W 22 35 12 19 - - 5.2
21/09:00pm 6.8 0.9 5.9 94 0.4 WNW 26 46 14 25 - - 5.2
21/08:30pm 6.6 0.3 5.6 93 0.5 W 28 39 15 21 - - 5.2
21/08:00pm 6.8 -0.4 5.7 93 0.5 W 33 48 18 26 - - 5.2
21/07:30pm 6.9 -0.3 5.8 93 0.5 WSW 33 46 18 25 - - 5.2
21/07:20pm 6.9 0.3 6.0 94 0.4 W 30 48 16 26 - - 5.2
21/07:00pm 7.0 0.8 6.1 94 0.4 W 28 37 15 20 - - 5.2
21/06:30pm 7.0 0.7 5.9 93 0.5 WSW 28 43 15 23 - - 5.2
21/06:18pm 6.9 -0.3 5.7 92 0.6 WSW 33 54 18 29 - - 5.2
21/06:00pm 6.9 0.6 5.5 91 0.7 WSW 28 43 15 23 - - 5.2
21/05:30pm 7.0 -1.3 5.9 93 0.5 WSW 39 54 21 29 - - 5.0
21/05:19pm 7.0 -0.6 5.9 93 0.5 WSW 35 57 19 31 - - 5.0
21/05:00pm 7.0 0.0 5.9 93 0.5 WSW 32 48 17 26 - - 5.0
21/04:44pm 7.0 0.7 5.9 93 0.5 WSW 28 46 15 25 - - 5.0
21/04:30pm 7.2 1.3 5.8 91 0.7 WSW 26 43 14 23 - - 5.0
21/04:05pm 7.2 -0.4 5.7 90 0.7 WSW 35 54 19 29 - - 5.0
21/04:00pm 7.2 -0.8 5.5 89 0.8 WSW 37 54 20 29 - - 5.0
21/03:30pm 7.1 -1.6 5.9 92 0.6 WSW 41 59 22 32 - - 5.0
21/03:00pm 7.1 -2.1 6.4 95 0.3 WSW 44 69 24 37 - - 5.0
21/02:53pm 7.2 -1.0 6.5 95 0.3 WSW 39 69 21 37 - - 5.0
21/02:36pm 7.4 0.6 6.7 95 0.3 WSW 32 50 17 27 - - 5.0
21/02:30pm 7.5 0.5 6.8 95 0.3 WSW 33 48 18 26 - - 4.8
21/02:00pm 7.3 1.2 6.6 95 0.3 W 28 48 15 26 - - 4.6
21/01:30pm 7.0 0.8 6.3 95 0.3 WSW 28 48 15 26 - - 4.6
21/01:00pm 6.8 -1.9 6.2 96 0.3 WSW 41 59 22 32 - - 4.6
21/12:30pm 6.9 0.4 6.3 96 0.3 WSW 30 59 16 32 - - 4.4
21/12:08pm 6.9 0.7 6.3 96 0.3 WSW 28 48 15 26 - - 4.0
21/12:00pm 6.9 1.5 6.3 96 0.3 WSW 24 37 13 20 - - 4.0
21/11:43am 6.9 0.7 6.3 96 0.3 WSW 28 48 15 26 - - 3.8
21/11:30am 6.8 2.3 6.2 96 0.3 WSW 19 35 10 19 - - 3.6
21/11:00am 6.9 1.1 6.3 96 0.3 WSW 26 41 14 22 - - 3.2
21/10:30am 6.8 1.0 6.2 96 0.3 W 26 61 14 33 - - 1.2
21/10:00am 6.7 0.5 6.1 96 0.3 WSW 28 67 15 36 - - 0.8
21/09:35am 6.6 0.3 5.9 95 0.3 W 28 57 15 31 - - 0.6
21/09:30am 6.5 1.4 5.8 95 0.3 WSW 22 57 12 31 - - 0.4
21/09:00am 6.3 -1.8 5.4 94 0.4 W 37 70 20 38 - - 1.8
21/08:30am 6.0 -2.1 5.3 95 0.3 W 37 70 20 38 - - 1.6
21/08:29am 5.9 -1.8 5.2 95 0.3 W 35 69 19 37 - - 1.6
21/08:00am 5.5 -3.4 4.9 96 0.3 WNW 41 82 22 44 - - 1.6
21/07:30am 5.3 -4.1 4.6 95 0.3 WNW 43 76 23 41 - - 1.4
21/07:00am 5.0 -4.7 4.1 94 0.4 WNW 44 76 24 41 - - 1.4
21/06:30am 4.8 -4.0 3.8 93 0.4 WNW 39 63 21 34 - - 1.2
21/06:00am 4.6 -3.4 3.6 93 0.4 WNW 35 57 19 31 - - 1.2
21/05:30am 4.4 -2.3 3.5 94 0.4 WNW 28 46 15 25 - - 1.2
21/05:00am 4.3 -3.7 3.6 95 0.3 W 35 54 19 29 - - 1.2
21/04:30am 4.2 -4.3 3.3 94 0.4 WNW 37 56 20 30 - - 1.2
21/04:01am 4.3 -5.0 3.0 91 0.6 W 41 59 22 32 - - 1.2
21/04:00am 4.3 -5.4 3.0 91 0.6 W 43 59 23 32 - - 1.2
21/03:42am 4.1 -4.1 2.9 92 0.5 W 35 54 19 29 - - 1.2
21/03:30am 4.2 -4.7 3.0 92 0.5 W 39 59 21 32 - - 1.2
21/03:00am 4.2 -7.7 2.4 88 0.8 W 54 72 29 39 - - 1.2
21/02:30am 4.1 -6.2 2.9 92 0.5 W 46 65 25 35 - - 1.2
21/02:21am 4.1 -6.5 2.9 92 0.5 W 48 72 26 39 - - 1.2
21/02:19am 4.1 -6.5 2.9 92 0.5 W 48 72 26 39 - - 1.2
21/02:00am 3.8 -5.5 3.1 95 0.3 W 41 65 22 35 - - 1.2
21/01:30am 4.1 -6.9 3.2 94 0.4 WNW 50 69 27 37 - - 1.0
21/01:00am 4.1 -4.8 2.8 91 0.6 W 39 57 21 31 - - 1.0
21/12:30am 4.1 -4.4 3.2 94 0.4 W 37 59 20 32 - - 1.0
21/12:00am 4.1 -3.4 3.4 95 0.3 W 32 52 17 28 - - 1.0
 
Date/Time
EDT
Temp
°C
App
Temp
°C
Dew
Point
°C
Rel
Hum
%
Delta-T
°C
Wind Press
QNH
hPa
Press
MSL
hPa
Rain since
9am
mm
Dir  Spd
km/h
Gust
km/h
Spd
kts
Gust
kts
20/11:30pm 4.3 -4.6 3.3 93 0.4 W 39 57 21 31 - - 1.0
20/11:13pm 4.3 -5.9 3.1 92 0.5 W 46 80 25 43 - - 1.0
20/11:00pm 4.2 -4.3 3.3 94 0.4 W 37 54 20 29 - - 1.0
20/10:30pm 4.4 -3.7 3.2 92 0.5 W 35 54 19 29 - - 0.8
20/10:14pm 4.7 -2.5 2.9 88 0.8 W 30 54 16 29 - - 0.8
20/10:00pm 4.9 -1.6 2.4 84 1.1 WNW 26 43 14 23 - - 0.8

Other formats

Comma delimited format used in spreadsheet applications
http://www.bom.gov.au/fwo/IDT60801/IDT60801.94977.axf

JavaScript Object Notation format (JSON) in row-major order
http://www.bom.gov.au/fwo/IDT60801/IDT60801.94977.json

Data quality

Most of these data are generated automatically and are frequently updated. Quality checks on data are not normally performed. It is possible for incorrect values to appear. Refer to information at About Latest Weather Observations and please check the disclaimer before using these data.